METAR Data
IDs: Format: Raw Decoded Include TAF

Data at: 1355 UTC 26 Feb 2021

METAR for:K20V (Kremmling/McElroy Fl, CO, US)
Text:K20V 261335Z AUTO 00000KT 10SM BKN070 OVC080 M17/M18 A2987 RMK AO2
Temperature:-17.0°C ( 1°F)
Dewpoint:-18.0°C ( -0°F) [RH = 92%]
Pressure (altimeter):29.87 inches Hg (1011.6 mb)
Winds:calm
Visibility:10 or more sm (16+ km)
Ceiling:7000 feet AGL
Clouds: broken clouds at 7000 feet AGL, overcast cloud deck at 8000 feet AGL
QC Flag:automated observation with no human augmentation